sensor_id;sensor_type;location;lat;lon;timestamp;temperature;humidity
29713;DHT22;16623;53.632;10.016;2023-04-03T00:01:30;0.60;99.90
29713;DHT22;16623;53.632;10.016;2023-04-03T00:03:56;0.60;99.90
29713;DHT22;16623;53.632;10.016;2023-04-03T00:06:22;0.60;99.90
29713;DHT22;16623;53.632;10.016;2023-04-03T00:08:49;0.60;99.90
29713;DHT22;16623;53.632;10.016;2023-04-03T00:11:15;0.60;99.90
29713;DHT22;16623;53.632;10.016;2023-04-03T00:13:41;0.60;99.90
29713;DHT22;16623;53.632;10.016;2023-04-03T00:16:08;0.60;99.90
29713;DHT22;16623;53.632;10.016;2023-04-03T00:18:36;0.60;99.90
29713;DHT22;16623;53.632;10.016;2023-04-03T00:21:01;0.60;99.90
29713;DHT22;16623;53.632;10.016;2023-04-03T00:23:27;0.60;99.90
29713;DHT22;16623;53.632;10.016;2023-04-03T00:25:53;0.60;99.90
29713;DHT22;16623;53.632;10.016;2023-04-03T00:28:19;0.60;99.90
29713;DHT22;16623;53.632;10.016;2023-04-03T00:30:46;0.60;99.90
29713;DHT22;16623;53.632;10.016;2023-04-03T00:33:12;0.60;99.90
29713;DHT22;16623;53.632;10.016;2023-04-03T00:35:38;0.50;99.90
29713;DHT22;16623;53.632;10.016;2023-04-03T00:38:04;0.60;99.90
29713;DHT22;16623;53.632;10.016;2023-04-03T00:40:35;0.60;99.90
29713;DHT22;16623;53.632;10.016;2023-04-03T00:43:01;0.60;99.90
29713;DHT22;16623;53.632;10.016;2023-04-03T00:45:31;0.50;99.90
29713;DHT22;16623;53.632;10.016;2023-04-03T00:47:57;0.50;99.90
29713;DHT22;16623;53.632;10.016;2023-04-03T00:50:26;0.50;99.90
29713;DHT22;16623;53.632;10.016;2023-04-03T00:52:52;0.50;99.90
29713;DHT22;16623;53.632;10.016;2023-04-03T00:55:18;0.50;99.90
29713;DHT22;16623;53.632;10.016;2023-04-03T00:57:46;0.50;99.90
29713;DHT22;16623;53.632;10.016;2023-04-03T01:00:14;0.50;99.90
29713;DHT22;16623;53.632;10.016;2023-04-03T01:02:41;0.50;99.90
29713;DHT22;16623;53.632;10.016;2023-04-03T01:05:07;0.60;99.90
29713;DHT22;16623;53.632;10.016;2023-04-03T01:07:34;0.50;99.90
29713;DHT22;16623;53.632;10.016;2023-04-03T01:10:05;0.40;99.90
29713;DHT22;16623;53.632;10.016;2023-04-03T01:12:38;0.40;99.90
29713;DHT22;16623;53.632;10.016;2023-04-03T01:15:13;0.50;99.90
29713;DHT22;16623;53.632;10.016;2023-04-03T01:17:45;0.50;99.90
29713;DHT22;16623;53.632;10.016;2023-04-03T01:25:37;0.40;99.90
29713;DHT22;16623;53.632;10.016;2023-04-03T01:28:04;0.50;99.90
29713;DHT22;16623;53.632;10.016;2023-04-03T01:30:33;0.40;99.90
29713;DHT22;16623;53.632;10.016;2023-04-03T01:32:59;0.40;99.90
29713;DHT22;16623;53.632;10.016;2023-04-03T01:35:25;0.30;99.90
29713;DHT22;16623;53.632;10.016;2023-04-03T01:37:51;0.30;99.90
29713;DHT22;16623;53.632;10.016;2023-04-03T01:40:16;0.40;99.90
29713;DHT22;16623;53.632;10.016;2023-04-03T01:42:42;0.40;99.90
29713;DHT22;16623;53.632;10.016;2023-04-03T01:45:08;0.50;99.90
29713;DHT22;16623;53.632;10.016;2023-04-03T01:47:34;0.40;99.90
29713;DHT22;16623;53.632;10.016;2023-04-03T01:49:59;0.40;99.90
29713;DHT22;16623;53.632;10.016;2023-04-03T01:52:25;0.40;99.90
29713;DHT22;16623;53.632;10.016;2023-04-03T01:54:50;0.30;99.90
29713;DHT22;16623;53.632;10.016;2023-04-03T01:57:16;0.30;99.90
29713;DHT22;16623;53.632;10.016;2023-04-03T01:59:41;0.30;99.90
29713;DHT22;16623;53.632;10.016;2023-04-03T02:02:07;0.30;99.90
29713;DHT22;16623;53.632;10.016;2023-04-03T02:04:32;0.20;99.90
29713;DHT22;16623;53.632;10.016;2023-04-03T02:06:58;0.20;99.90
29713;DHT22;16623;53.632;10.016;2023-04-03T02:09:24;0.20;99.90
29713;DHT22;16623;53.632;10.016;2023-04-03T02:11:49;0.20;99.90
29713;DHT22;16623;53.632;10.016;2023-04-03T02:14:15;0.20;99.90
29713;DHT22;16623;53.632;10.016;2023-04-03T02:16:40;0.20;99.90
29713;DHT22;16623;53.632;10.016;2023-04-03T02:19:06;0.20;99.90
29713;DHT22;16623;53.632;10.016;2023-04-03T02:21:32;0.20;99.90
29713;DHT22;16623;53.632;10.016;2023-04-03T02:23:57;0.10;99.90
29713;DHT22;16623;53.632;10.016;2023-04-03T02:26:23;0.10;99.90
29713;DHT22;16623;53.632;10.016;2023-04-03T02:28:48;0.10;99.90
29713;DHT22;16623;53.632;10.016;2023-04-03T02:31:14;0.10;99.90
29713;DHT22;16623;53.632;10.016;2023-04-03T02:33:40;0.10;99.90
29713;DHT22;16623;53.632;10.016;2023-04-03T02:36:08;0.10;99.90
29713;DHT22;16623;53.632;10.016;2023-04-03T02:38:33;0.10;99.90
29713;DHT22;16623;53.632;10.016;2023-04-03T02:41:05;0.00;99.90
29713;DHT22;16623;53.632;10.016;2023-04-03T02:43:31;0.10;99.90
29713;DHT22;16623;53.632;10.016;2023-04-03T02:45:56;0.10;99.90
29713;DHT22;16623;53.632;10.016;2023-04-03T02:48:22;0.10;99.90
29713;DHT22;16623;53.632;10.016;2023-04-03T02:50:48;0.10;99.90
29713;DHT22;16623;53.632;10.016;2023-04-03T02:53:14;0.10;99.90
29713;DHT22;16623;53.632;10.016;2023-04-03T02:55:41;0.10;99.90
29713;DHT22;16623;53.632;10.016;2023-04-03T02:58:07;0.00;99.90
29713;DHT22;16623;53.632;10.016;2023-04-03T03:00:33;0.00;99.90
29713;DHT22;16623;53.632;10.016;2023-04-03T03:02:59;0.00;99.90
29713;DHT22;16623;53.632;10.016;2023-04-03T03:05:25;0.00;99.90
29713;DHT22;16623;53.632;10.016;2023-04-03T03:07:51;0.00;99.90
29713;DHT22;16623;53.632;10.016;2023-04-03T03:10:16;0.00;99.90
29713;DHT22;16623;53.632;10.016;2023-04-03T03:12:42;0.00;99.90
29713;DHT22;16623;53.632;10.016;2023-04-03T03:15:08;0.00;99.90
29713;DHT22;16623;53.632;10.016;2023-04-03T03:17:34;0.00;99.90
29713;DHT22;16623;53.632;10.016;2023-04-03T03:20:01;0.00;99.90
29713;DHT22;16623;53.632;10.016;2023-04-03T03:22:27;0.00;99.90
29713;DHT22;16623;53.632;10.016;2023-04-03T03:24:52;0.00;99.90
29713;DHT22;16623;53.632;10.016;2023-04-03T03:27:18;0.00;99.90
29713;DHT22;16623;53.632;10.016;2023-04-03T03:29:43;-0.10;99.90
29713;DHT22;16623;53.632;10.016;2023-04-03T03:32:10;-0.10;99.90
29713;DHT22;16623;53.632;10.016;2023-04-03T03:34:35;-0.10;99.90
29713;DHT22;16623;53.632;10.016;2023-04-03T03:37:00;-0.10;99.90
29713;DHT22;16623;53.632;10.016;2023-04-03T03:39:26;-0.20;99.90
29713;DHT22;16623;53.632;10.016;2023-04-03T03:41:52;-0.20;99.90
29713;DHT22;16623;53.632;10.016;2023-04-03T03:44:19;-0.10;99.90
29713;DHT22;16623;53.632;10.016;2023-04-03T03:46:44;-0.20;99.90
29713;DHT22;16623;53.632;10.016;2023-04-03T03:49:10;0.50;99.90
29713;DHT22;16623;53.632;10.016;2023-04-03T03:51:37;-0.20;99.90
29713;DHT22;16623;53.632;10.016;2023-04-03T03:54:03;-0.10;99.90
29713;DHT22;16623;53.632;10.016;2023-04-03T03:56:29;-0.10;99.90
29713;DHT22;16623;53.632;10.016;2023-04-03T03:58:55;-0.10;99.90
29713;DHT22;16623;53.632;10.016;2023-04-03T04:01:25;-0.10;99.90
29713;DHT22;16623;53.632;10.016;2023-04-03T04:03:51;-0.10;99.90
29713;DHT22;16623;53.632;10.016;2023-04-03T04:06:16;-0.20;99.90
29713;DHT22;16623;53.632;10.016;2023-04-03T04:08:42;-0.10;99.90
29713;DHT22;16623;53.632;10.016;2023-04-03T04:11:08;0.00;99.90
29713;DHT22;16623;53.632;10.016;2023-04-03T04:13:34;0.10;99.90
29713;DHT22;16623;53.632;10.016;2023-04-03T04:16:00;0.10;99.90
29713;DHT22;16623;53.632;10.016;2023-04-03T04:18:25;0.00;99.90
29713;DHT22;16623;53.632;10.016;2023-04-03T04:20:51;0.00;99.90
29713;DHT22;16623;53.632;10.016;2023-04-03T04:23:17;0.10;99.90
29713;DHT22;16623;53.632;10.016;2023-04-03T04:25:45;0.00;99.90
29713;DHT22;16623;53.632;10.016;2023-04-03T04:28:11;0.00;99.90
29713;DHT22;16623;53.632;10.016;2023-04-03T04:30:37;0.00;99.90
29713;DHT22;16623;53.632;10.016;2023-04-03T04:33:02;-0.10;99.90
29713;DHT22;16623;53.632;10.016;2023-04-03T04:35:28;-0.10;99.90
29713;DHT22;16623;53.632;10.016;2023-04-03T04:38:16;-0.10;99.90
29713;DHT22;16623;53.632;10.016;2023-04-03T04:40:42;-0.20;99.90
29713;DHT22;16623;53.632;10.016;2023-04-03T04:43:07;-0.20;99.90
29713;DHT22;16623;53.632;10.016;2023-04-03T04:45:33;-0.20;99.90
29713;DHT22;16623;53.632;10.016;2023-04-03T04:47:58;-0.20;99.90
29713;DHT22;16623;53.632;10.016;2023-04-03T04:50:24;-0.20;99.90
29713;DHT22;16623;53.632;10.016;2023-04-03T04:52:49;-0.10;99.90
29713;DHT22;16623;53.632;10.016;2023-04-03T04:55:15;-0.10;99.90
29713;DHT22;16623;53.632;10.016;2023-04-03T04:57:40;-0.10;99.90
29713;DHT22;16623;53.632;10.016;2023-04-03T05:00:06;0.00;99.90
29713;DHT22;16623;53.632;10.016;2023-04-03T05:02:32;0.10;99.90
29713;DHT22;16623;53.632;10.016;2023-04-03T05:04:58;0.40;99.90
29713;DHT22;16623;53.632;10.016;2023-04-03T05:07:24;0.20;99.90
29713;DHT22;16623;53.632;10.016;2023-04-03T05:09:49;0.20;99.90
29713;DHT22;16623;53.632;10.016;2023-04-03T05:12:15;0.30;99.90
29713;DHT22;16623;53.632;10.016;2023-04-03T05:14:41;0.30;99.90
29713;DHT22;16623;53.632;10.016;2023-04-03T05:19:33;0.30;99.90
29713;DHT22;16623;53.632;10.016;2023-04-03T05:21:58;0.40;99.90
29713;DHT22;16623;53.632;10.016;2023-04-03T05:24:24;0.50;99.90
29713;DHT22;16623;53.632;10.016;2023-04-03T05:26:50;0.50;99.90
29713;DHT22;16623;53.632;10.016;2023-04-03T05:29:16;2.20;99.90
29713;DHT22;16623;53.632;10.016;2023-04-03T05:31:41;0.70;99.90
29713;DHT22;16623;53.632;10.016;2023-04-03T05:34:07;0.80;99.90
29713;DHT22;16623;53.632;10.016;2023-04-03T05:36:32;0.80;99.90
29713;DHT22;16623;53.632;10.016;2023-04-03T05:38:58;0.90;99.90
29713;DHT22;16623;53.632;10.016;2023-04-03T05:41:23;1.00;99.90
29713;DHT22;16623;53.632;10.016;2023-04-03T05:43:49;1.00;99.90
29713;DHT22;16623;53.632;10.016;2023-04-03T05:46:17;1.10;99.90
29713;DHT22;16623;53.632;10.016;2023-04-03T05:48:44;1.30;99.90
29713;DHT22;16623;53.632;10.016;2023-04-03T05:51:20;1.30;99.90
29713;DHT22;16623;53.632;10.016;2023-04-03T05:53:47;1.30;99.90
29713;DHT22;16623;53.632;10.016;2023-04-03T05:56:13;1.40;99.90
29713;DHT22;16623;53.632;10.016;2023-04-03T05:58:39;1.50;99.90
29713;DHT22;16623;53.632;10.016;2023-04-03T06:01:04;1.40;99.90
29713;DHT22;16623;53.632;10.016;2023-04-03T06:03:31;1.40;99.90
29713;DHT22;16623;53.632;10.016;2023-04-03T06:05:56;1.40;99.90
29713;DHT22;16623;53.632;10.016;2023-04-03T06:08:22;1.40;99.90
29713;DHT22;16623;53.632;10.016;2023-04-03T06:10:49;1.60;99.90
29713;DHT22;16623;53.632;10.016;2023-04-03T06:13:15;1.70;99.90
29713;DHT22;16623;53.632;10.016;2023-04-03T06:15:41;1.80;99.90
29713;DHT22;16623;53.632;10.016;2023-04-03T06:18:07;1.90;99.90
29713;DHT22;16623;53.632;10.016;2023-04-03T06:20:32;2.00;99.90
29713;DHT22;16623;53.632;10.016;2023-04-03T06:22:58;2.20;99.90
29713;DHT22;16623;53.632;10.016;2023-04-03T06:25:23;2.50;99.90
29713;DHT22;16623;53.632;10.016;2023-04-03T06:27:49;2.80;99.90
29713;DHT22;16623;53.632;10.016;2023-04-03T06:30:15;3.20;99.90
29713;DHT22;16623;53.632;10.016;2023-04-03T06:32:41;3.50;99.90
29713;DHT22;16623;53.632;10.016;2023-04-03T06:35:07;3.90;99.90
29713;DHT22;16623;53.632;10.016;2023-04-03T06:37:32;4.00;99.90
29713;DHT22;16623;53.632;10.016;2023-04-03T06:39:58;3.90;99.90
29713;DHT22;16623;53.632;10.016;2023-04-03T06:42:25;3.80;99.90
29713;DHT22;16623;53.632;10.016;2023-04-03T06:44:51;3.80;99.90
29713;DHT22;16623;53.632;10.016;2023-04-03T06:47:17;3.80;99.90
29713;DHT22;16623;53.632;10.016;2023-04-03T06:49:43;3.70;99.90
29713;DHT22;16623;53.632;10.016;2023-04-03T06:52:09;3.70;99.90
29713;DHT22;16623;53.632;10.016;2023-04-03T06:54:35;3.70;99.90
29713;DHT22;16623;53.632;10.016;2023-04-03T06:57:01;3.80;99.90
29713;DHT22;16623;53.632;10.016;2023-04-03T06:59:26;3.80;99.90
29713;DHT22;16623;53.632;10.016;2023-04-03T07:01:52;4.20;99.90
29713;DHT22;16623;53.632;10.016;2023-04-03T07:04:17;4.50;99.90
29713;DHT22;16623;53.632;10.016;2023-04-03T07:06:47;4.60;99.90
29713;DHT22;16623;53.632;10.016;2023-04-03T07:09:14;4.50;99.90
29713;DHT22;16623;53.632;10.016;2023-04-03T07:11:39;4.70;99.90
29713;DHT22;16623;53.632;10.016;2023-04-03T07:14:05;5.10;99.90
29713;DHT22;16623;53.632;10.016;2023-04-03T07:16:33;5.20;99.90
29713;DHT22;16623;53.632;10.016;2023-04-03T07:18:59;5.20;99.90
29713;DHT22;16623;53.632;10.016;2023-04-03T07:21:25;5.10;99.90
29713;DHT22;16623;53.632;10.016;2023-04-03T07:23:51;4.90;99.90
29713;DHT22;16623;53.632;10.016;2023-04-03T07:26:16;4.70;99.90
29713;DHT22;16623;53.632;10.016;2023-04-03T07:28:42;4.60;99.90
29713;DHT22;16623;53.632;10.016;2023-04-03T07:31:13;4.60;99.90
29713;DHT22;16623;53.632;10.016;2023-04-03T07:33:39;4.70;99.90
29713;DHT22;16623;53.632;10.016;2023-04-03T07:36:06;4.80;99.90
29713;DHT22;16623;53.632;10.016;2023-04-03T07:38:35;4.80;99.90
29713;DHT22;16623;53.632;10.016;2023-04-03T07:41:01;4.90;99.90
29713;DHT22;16623;53.632;10.016;2023-04-03T07:43:27;4.90;99.90
29713;DHT22;16623;53.632;10.016;2023-04-03T07:45:53;4.90;99.90
29713;DHT22;16623;53.632;10.016;2023-04-03T07:48:21;4.80;99.90
29713;DHT22;16623;53.632;10.016;2023-04-03T07:50:46;4.80;99.90
29713;DHT22;16623;53.632;10.016;2023-04-03T07:53:12;4.80;99.90
29713;DHT22;16623;53.632;10.016;2023-04-03T07:55:38;4.90;99.90
29713;DHT22;16623;53.632;10.016;2023-04-03T07:58:13;5.00;99.90
29713;DHT22;16623;53.632;10.016;2023-04-03T08:00:39;5.10;99.90
29713;DHT22;16623;53.632;10.016;2023-04-03T08:03:06;5.00;99.90
29713;DHT22;16623;53.632;10.016;2023-04-03T08:05:36;5.00;99.90
29713;DHT22;16623;53.632;10.016;2023-04-03T08:08:02;5.00;99.90
29713;DHT22;16623;53.632;10.016;2023-04-03T08:10:30;5.30;99.90
29713;DHT22;16623;53.632;10.016;2023-04-03T08:12:55;5.30;99.90
29713;DHT22;16623;53.632;10.016;2023-04-03T08:15:21;5.30;99.90
29713;DHT22;16623;53.632;10.016;2023-04-03T08:17:46;5.20;99.90
29713;DHT22;16623;53.632;10.016;2023-04-03T08:20:12;6.50;99.90
29713;DHT22;16623;53.632;10.016;2023-04-03T08:22:38;5.40;99.90
29713;DHT22;16623;53.632;10.016;2023-04-03T08:25:04;5.50;99.90
29713;DHT22;16623;53.632;10.016;2023-04-03T08:27:29;5.60;99.90
29713;DHT22;16623;53.632;10.016;2023-04-03T08:29:56;5.80;99.90
29713;DHT22;16623;53.632;10.016;2023-04-03T08:32:22;5.90;99.90
29713;DHT22;16623;53.632;10.016;2023-04-03T08:34:48;6.00;99.90
29713;DHT22;16623;53.632;10.016;2023-04-03T08:37:13;6.10;99.90
29713;DHT22;16623;53.632;10.016;2023-04-03T08:39:41;6.10;99.90
29713;DHT22;16623;53.632;10.016;2023-04-03T08:45:26;6.10;99.90
29713;DHT22;16623;53.632;10.016;2023-04-03T08:48:15;6.00;99.90
29713;DHT22;16623;53.632;10.016;2023-04-03T08:50:46;6.10;99.90
29713;DHT22;16623;53.632;10.016;2023-04-03T08:53:19;5.70;99.90
29713;DHT22;16623;53.632;10.016;2023-04-03T08:55:47;5.70;99.90
29713;DHT22;16623;53.632;10.016;2023-04-03T09:01:16;5.70;99.90
29713;DHT22;16623;53.632;10.016;2023-04-03T09:03:42;5.80;99.90
29713;DHT22;16623;53.632;10.016;2023-04-03T09:12:23;6.10;99.80
29713;DHT22;16623;53.632;10.016;2023-04-03T09:15:18;6.40;99.90
29713;DHT22;16623;53.632;10.016;2023-04-03T09:22:43;6.80;95.70
29713;DHT22;16623;53.632;10.016;2023-04-03T09:25:25;6.80;95.80
29713;DHT22;16623;53.632;10.016;2023-04-03T09:27:53;6.70;94.20
29713;DHT22;16623;53.632;10.016;2023-04-03T09:30:23;6.60;94.30
29713;DHT22;16623;53.632;10.016;2023-04-03T09:32:54;6.80;94.60
29713;DHT22;16623;53.632;10.016;2023-04-03T09:35:26;7.00;93.90
29713;DHT22;16623;53.632;10.016;2023-04-03T09:40:43;7.40;92.90
29713;DHT22;16623;53.632;10.016;2023-04-03T09:43:21;7.00;93.30
29713;DHT22;16623;53.632;10.016;2023-04-03T09:45:48;7.20;93.60
29713;DHT22;16623;53.632;10.016;2023-04-03T09:50:59;7.80;87.20
29713;DHT22;16623;53.632;10.016;2023-04-03T09:53:42;7.60;86.90
29713;DHT22;16623;53.632;10.016;2023-04-03T09:56:29;7.40;88.70
29713;DHT22;16623;53.632;10.016;2023-04-03T10:01:31;7.70;86.70
29713;DHT22;16623;53.632;10.016;2023-04-03T10:04:18;8.20;88.10
29713;DHT22;16623;53.632;10.016;2023-04-03T10:06:54;8.10;80.30
29713;DHT22;16623;53.632;10.016;2023-04-03T10:09:29;7.90;82.50
29713;DHT22;16623;53.632;10.016;2023-04-03T10:12:09;7.80;82.70
29713;DHT22;16623;53.632;10.016;2023-04-03T10:15:00;8.00;83.20
29713;DHT22;16623;53.632;10.016;2023-04-03T10:17:47;8.00;81.00
29713;DHT22;16623;53.632;10.016;2023-04-03T10:20:21;7.70;82.90
29713;DHT22;16623;53.632;10.016;2023-04-03T10:23:02;8.20;84.00
29713;DHT22;16623;53.632;10.016;2023-04-03T10:25:45;9.00;82.40
29713;DHT22;16623;53.632;10.016;2023-04-03T10:28:17;9.30;77.40
29713;DHT22;16623;53.632;10.016;2023-04-03T10:31:14;8.80;77.30
29713;DHT22;16623;53.632;10.016;2023-04-03T10:36:43;9.20;74.30
29713;DHT22;16623;53.632;10.016;2023-04-03T10:42:00;8.80;77.20
29713;DHT22;16623;53.632;10.016;2023-04-03T10:44:35;9.40;76.20
29713;DHT22;16623;53.632;10.016;2023-04-03T10:47:11;9.70;74.00
29713;DHT22;16623;53.632;10.016;2023-04-03T10:52:43;10.60;70.80
29713;DHT22;16623;53.632;10.016;2023-04-03T10:55:35;10.50;69.70
29713;DHT22;16623;53.632;10.016;2023-04-03T10:58:04;9.50;71.60
29713;DHT22;16623;53.632;10.016;2023-04-03T11:00:41;8.70;74.30
29713;DHT22;16623;53.632;10.016;2023-04-03T11:03:17;8.50;75.20
29713;DHT22;16623;53.632;10.016;2023-04-03T11:05:49;8.40;78.00
29713;DHT22;16623;53.632;10.016;2023-04-03T11:08:42;8.30;78.40
29713;DHT22;16623;53.632;10.016;2023-04-03T11:11:13;8.10;78.30
29713;DHT22;16623;53.632;10.016;2023-04-03T11:13:49;9.30;81.00
29713;DHT22;16623;53.632;10.016;2023-04-03T11:16:26;8.10;79.20
29713;DHT22;16623;53.632;10.016;2023-04-03T11:18:59;8.20;81.00
29713;DHT22;16623;53.632;10.016;2023-04-03T11:21:54;7.90;80.40
29713;DHT22;16623;53.632;10.016;2023-04-03T11:24:25;7.70;82.20
29713;DHT22;16623;53.632;10.016;2023-04-03T11:26:54;7.50;84.90
29713;DHT22;16623;53.632;10.016;2023-04-03T11:29:23;7.20;83.40
29713;DHT22;16623;53.632;10.016;2023-04-03T11:34:56;7.20;83.40
29713;DHT22;16623;53.632;10.016;2023-04-03T11:37:38;7.70;84.90
29713;DHT22;16623;53.632;10.016;2023-04-03T11:40:21;8.00;82.20
29713;DHT22;16623;53.632;10.016;2023-04-03T11:43:20;7.80;78.60
29713;DHT22;16623;53.632;10.016;2023-04-03T11:53:39;7.80;79.00
29713;DHT22;16623;53.632;10.016;2023-04-03T11:59:21;7.40;79.90
29713;DHT22;16623;53.632;10.016;2023-04-03T12:04:18;7.60;83.50
29713;DHT22;16623;53.632;10.016;2023-04-03T12:09:29;7.10;81.40
29713;DHT22;16623;53.632;10.016;2023-04-03T12:11:56;8.90;81.50
29713;DHT22;16623;53.632;10.016;2023-04-03T12:14:24;7.10;80.60
29713;DHT22;16623;53.632;10.016;2023-04-03T12:16:53;7.10;78.50
29713;DHT22;16623;53.632;10.016;2023-04-03T12:19:36;7.10;78.40
29713;DHT22;16623;53.632;10.016;2023-04-03T12:22:08;7.00;77.20
29713;DHT22;16623;53.632;10.016;2023-04-03T12:24:36;7.10;79.10
29713;DHT22;16623;53.632;10.016;2023-04-03T12:27:24;7.10;78.50
29713;DHT22;16623;53.632;10.016;2023-04-03T12:29:58;7.10;78.20
29713;DHT22;16623;53.632;10.016;2023-04-03T12:32:48;7.20;75.80
29713;DHT22;16623;53.632;10.016;2023-04-03T12:38:46;7.80;74.90
29713;DHT22;16623;53.632;10.016;2023-04-03T12:41:18;7.70;74.10
29713;DHT22;16623;53.632;10.016;2023-04-03T12:44:06;7.90;73.20
29713;DHT22;16623;53.632;10.016;2023-04-03T12:46:43;8.20;71.50
29713;DHT22;16623;53.632;10.016;2023-04-03T12:51:54;7.90;73.70
29713;DHT22;16623;53.632;10.016;2023-04-03T12:54:27;7.90;75.30
29713;DHT22;16623;53.632;10.016;2023-04-03T12:57:10;8.20;77.50
29713;DHT22;16623;53.632;10.016;2023-04-03T12:59:36;8.20;75.20
29713;DHT22;16623;53.632;10.016;2023-04-03T13:02:02;8.00;74.40
29713;DHT22;16623;53.632;10.016;2023-04-03T13:04:31;8.10;75.20
29713;DHT22;16623;53.632;10.016;2023-04-03T13:06:57;8.00;75.30
29713;DHT22;16623;53.632;10.016;2023-04-03T13:09:28;8.00;75.40
29713;DHT22;16623;53.632;10.016;2023-04-03T13:12:00;8.00;74.30
29713;DHT22;16623;53.632;10.016;2023-04-03T13:14:27;8.50;75.20
29713;DHT22;16623;53.632;10.016;2023-04-03T13:16:57;8.20;73.40
29713;DHT22;16623;53.632;10.016;2023-04-03T13:19:26;8.10;73.30
29713;DHT22;16623;53.632;10.016;2023-04-03T13:21:59;8.00;74.80
29713;DHT22;16623;53.632;10.016;2023-04-03T13:24:27;7.70;72.90
29713;DHT22;16623;53.632;10.016;2023-04-03T13:26:54;7.70;75.00
29713;DHT22;16623;53.632;10.016;2023-04-03T13:29:27;7.80;73.90
29713;DHT22;16623;53.632;10.016;2023-04-03T13:31:55;7.80;75.00
29713;DHT22;16623;53.632;10.016;2023-04-03T13:34:23;8.10;77.40
29713;DHT22;16623;53.632;10.016;2023-04-03T13:36:58;8.20;77.20
29713;DHT22;16623;53.632;10.016;2023-04-03T13:39:32;7.90;74.40
29713;DHT22;16623;53.632;10.016;2023-04-03T13:42:32;7.80;76.00
29713;DHT22;16623;53.632;10.016;2023-04-03T13:47:41;7.60;76.70
29713;DHT22;16623;53.632;10.016;2023-04-03T13:50:26;7.70;76.50
29713;DHT22;16623;53.632;10.016;2023-04-03T13:52:55;7.80;73.70
29713;DHT22;16623;53.632;10.016;2023-04-03T13:55:25;7.80;74.90
29713;DHT22;16623;53.632;10.016;2023-04-03T13:57:55;7.70;74.70
29713;DHT22;16623;53.632;10.016;2023-04-03T14:01:08;7.80;74.30
29713;DHT22;16623;53.632;10.016;2023-04-03T14:06:08;7.80;75.10
29713;DHT22;16623;53.632;10.016;2023-04-03T14:08:35;7.60;77.10
29713;DHT22;16623;53.632;10.016;2023-04-03T14:11:00;7.60;73.20
29713;DHT22;16623;53.632;10.016;2023-04-03T14:13:26;7.70;75.70
29713;DHT22;16623;53.632;10.016;2023-04-03T14:15:51;7.60;76.00
29713;DHT22;16623;53.632;10.016;2023-04-03T14:18:19;7.60;76.20
29713;DHT22;16623;53.632;10.016;2023-04-03T14:20:47;7.80;76.50
29713;DHT22;16623;53.632;10.016;2023-04-03T14:23:12;8.00;76.10
29713;DHT22;16623;53.632;10.016;2023-04-03T14:25:39;8.00;75.50
29713;DHT22;16623;53.632;10.016;2023-04-03T14:28:17;7.90;76.50
29713;DHT22;16623;53.632;10.016;2023-04-03T14:30:45;7.80;77.70
29713;DHT22;16623;53.632;10.016;2023-04-03T14:33:14;7.80;78.40
29713;DHT22;16623;53.632;10.016;2023-04-03T14:35:41;7.80;79.10
29713;DHT22;16623;53.632;10.016;2023-04-03T14:38:21;7.60;78.00
29713;DHT22;16623;53.632;10.016;2023-04-03T14:40:47;7.60;77.00
29713;DHT22;16623;53.632;10.016;2023-04-03T14:43:13;7.60;76.50
29713;DHT22;16623;53.632;10.016;2023-04-03T14:45:40;7.50;76.80
29713;DHT22;16623;53.632;10.016;2023-04-03T14:48:11;7.30;78.70
29713;DHT22;16623;53.632;10.016;2023-04-03T14:50:41;7.30;80.70
29713;DHT22;16623;53.632;10.016;2023-04-03T14:53:07;8.00;81.30
29713;DHT22;16623;53.632;10.016;2023-04-03T14:55:35;7.50;81.00
29713;DHT22;16623;53.632;10.016;2023-04-03T14:58:01;7.60;81.10
29713;DHT22;16623;53.632;10.016;2023-04-03T15:00:26;7.40;81.20
29713;DHT22;16623;53.632;10.016;2023-04-03T15:02:52;7.40;81.80
29713;DHT22;16623;53.632;10.016;2023-04-03T15:05:17;7.40;80.60
29713;DHT22;16623;53.632;10.016;2023-04-03T15:07:53;7.60;81.30
29713;DHT22;16623;53.632;10.016;2023-04-03T15:10:22;7.60;80.90
29713;DHT22;16623;53.632;10.016;2023-04-03T15:12:50;7.50;81.50
29713;DHT22;16623;53.632;10.016;2023-04-03T15:15:17;7.40;82.20
29713;DHT22;16623;53.632;10.016;2023-04-03T15:17:44;7.20;82.30
29713;DHT22;16623;53.632;10.016;2023-04-03T15:20:16;7.20;80.30
29713;DHT22;16623;53.632;10.016;2023-04-03T15:22:42;7.10;81.60
29713;DHT22;16623;53.632;10.016;2023-04-03T15:25:09;7.10;83.10
29713;DHT22;16623;53.632;10.016;2023-04-03T15:27:36;7.00;82.90
29713;DHT22;16623;53.632;10.016;2023-04-03T15:30:04;7.00;82.60
29713;DHT22;16623;53.632;10.016;2023-04-03T15:32:30;7.10;81.80
29713;DHT22;16623;53.632;10.016;2023-04-03T15:34:56;7.10;82.90
29713;DHT22;16623;53.632;10.016;2023-04-03T15:37:22;7.10;81.40
29713;DHT22;16623;53.632;10.016;2023-04-03T15:39:47;7.20;80.80
29713;DHT22;16623;53.632;10.016;2023-04-03T15:42:13;7.20;81.70
29713;DHT22;16623;53.632;10.016;2023-04-03T15:44:39;7.20;81.90
29713;DHT22;16623;53.632;10.016;2023-04-03T15:47:05;7.30;83.30
29713;DHT22;16623;53.632;10.016;2023-04-03T15:49:32;7.40;84.40
29713;DHT22;16623;53.632;10.016;2023-04-03T15:51:58;7.50;85.00
29713;DHT22;16623;53.632;10.016;2023-04-03T15:54:24;7.50;82.50
29713;DHT22;16623;53.632;10.016;2023-04-03T15:56:50;7.50;83.40
29713;DHT22;16623;53.632;10.016;2023-04-03T15:59:16;7.30;83.60
29713;DHT22;16623;53.632;10.016;2023-04-03T16:01:42;7.00;84.40
29713;DHT22;16623;53.632;10.016;2023-04-03T16:04:08;7.10;85.70
29713;DHT22;16623;53.632;10.016;2023-04-03T16:06:35;6.90;83.80
29713;DHT22;16623;53.632;10.016;2023-04-03T16:09:01;6.90;84.40
29713;DHT22;16623;53.632;10.016;2023-04-03T16:11:27;6.90;85.30
29713;DHT22;16623;53.632;10.016;2023-04-03T16:13:53;6.90;86.30
29713;DHT22;16623;53.632;10.016;2023-04-03T16:16:19;6.80;86.50
29713;DHT22;16623;53.632;10.016;2023-04-03T16:18:45;6.70;85.80
29713;DHT22;16623;53.632;10.016;2023-04-03T16:21:12;6.80;85.50
29713;DHT22;16623;53.632;10.016;2023-04-03T16:23:39;6.90;86.90
29713;DHT22;16623;53.632;10.016;2023-04-03T16:26:05;6.90;85.60
29713;DHT22;16623;53.632;10.016;2023-04-03T16:28:31;6.90;87.20
29713;DHT22;16623;53.632;10.016;2023-04-03T16:30:57;6.80;88.50
29713;DHT22;16623;53.632;10.016;2023-04-03T16:33:26;6.80;90.30
29713;DHT22;16623;53.632;10.016;2023-04-03T16:35:51;6.70;89.80
29713;DHT22;16623;53.632;10.016;2023-04-03T16:38:17;6.60;90.40
29713;DHT22;16623;53.632;10.016;2023-04-03T16:40:44;6.60;90.80
29713;DHT22;16623;53.632;10.016;2023-04-03T16:43:10;6.40;91.10
29713;DHT22;16623;53.632;10.016;2023-04-03T16:45:36;6.20;91.40
29713;DHT22;16623;53.632;10.016;2023-04-03T16:48:02;6.20;91.70
29713;DHT22;16623;53.632;10.016;2023-04-03T16:50:28;6.30;91.90
29713;DHT22;16623;53.632;10.016;2023-04-03T16:52:53;6.20;91.90